Ashby, Minnesota
Current Conditions -  °F | °C
As of 1:38 PM on Thursday 27 Nov 2014 (Local Time) from KY63 Reporting Station
Haze Haze  
Wind Chill: -23°   Ceiling: Unl
Heat Index: -15°   Visibility: 4mi
Dew Point: -21°   Wind: 9mph
Humidity: 66%   Direction: 170°S
Pressure: 30.39"   Gusts: NA
Location:  46.09°N, 95.82°W
Report Text: KY63 271938Z AUTO 17008KT 4SM HZ CLR M15/M20 A3039 RMK AO2 T11541205
Loading
Personal Weather Stations






























Interactive Weather Map New forecast layout! Learn more

10-Day Weather Forecast

Advertisements
Track Severe Weather on mobile